Ronnie Rogers — WDD2270 — position and weather

sailwx.info

Track history (hours):
 
Tides and Currents Weather Stations Pressure Air Temp Water Temp Dewpoint Dewpoint Depression Visibility Wind Speed Wind Dir Waves Ship Positions

Ronnie Rogers

Owner: Florida Marine Transporters, Inc., Mandeville, LA. More information available from US FCC via Universal Licensing System and Coast Guard Vessel Documentation Center.

Last reported at 2015-Jun-26 02:30 UTC. Time now 2015-Jun-30 19:42 UTC.
Position N 29°23' W 094°49'.

Length 29 m; draft 3 m.

Type: Towing. MMSI: 367113160.

Date/timePositionNaut miles runAvg speedWind from/ knotsBaromVisibWave heightAir tempDewpointWater temp
2015-Jun-26 02:30N 29°23' W 094°49'8 8.4
2015-Jun-26 01:33N 29°30' W 094°53'8 7.7
2015-Jun-26 00:34N 29°37' W 094°57'8 7.7
2015-Jun-25 23:34N 29°44' W 095°02'4 3.9
2015-Jun-25 22:30N 29°47' W 095°04'0 0.2
2015-Jun-25 21:33N 29°47' W 095°04'4 4.4
2015-Jun-25 20:33N 29°44' W 095°08'4 1.0
2015-Jun-25 16:33N 29°44' W 095°12'0 0.0
2015-Jun-25 15:33N 29°44' W 095°12'0 0.0
2015-Jun-25 14:32N 29°44' W 095°12'0 0.0
2015-Jun-25 13:33N 29°44' W 095°12'0 0.0
2015-Jun-25 12:28N 29°44' W 095°12'0 0.0
2015-Jun-25 11:31N 29°44' W 095°12'0 0.0
2015-Jun-25 10:30N 29°44' W 095°12'0 0.0
2015-Jun-25 09:18N 29°44' W 095°12'0 0.0
2015-Jun-25 08:29N 29°44' W 095°12'0 0.0
2015-Jun-25 07:32N 29°44' W 095°12'0 0.0
2015-Jun-25 06:33N 29°44' W 095°12'0 0.0
2015-Jun-25 05:27N 29°44' W 095°12'0 0.0
2015-Jun-25 04:33N 29°44' W 095°12'0 0.0
2015-Jun-25 03:30N 29°44' W 095°12'0 0.0
2015-Jun-25 02:30N 29°44' W 095°12'0 0.0
2015-Jun-24 21:19N 29°44' W 095°12'5 6.7
2015-Jun-24 20:32N 29°45' W 095°06'3 3.4
2015-Jun-24 19:33N 29°47' W 095°04'3 3.1
2015-Jun-24 18:32N 29°45' W 095°06'4 3.7
2015-Jun-24 17:33N 29°45' W 095°10'2 0.1
2015-Jun-24 04:25N 29°44' W 095°12'0 0.0
2015-Jun-24 03:34N 29°44' W 095°12'0 0.0
2015-Jun-24 02:33N 29°44' W 095°12'0 0.0
2015-Jun-24 01:32N 29°44' W 095°12'0 0.0
2015-Jun-24 00:33N 29°44' W 095°12'1 0.2
2015-Jun-23 20:24N 29°45' W 095°12'5 5.5
2015-Jun-23 19:33N 29°45' W 095°06'3 5.3
2015-Jun-23 19:05N 29°47' W 095°05'  
Track history (hours):
 
Tides and Currents Weather Stations Pressure Air Temp Water Temp Dewpoint Dewpoint Depression Visibility Wind Speed Wind Dir Waves Ship Positions

Ronnie Rogers

Owner: Florida Marine Transporters, Inc., Mandeville, LA. More information available from US FCC via Universal Licensing System and Coast Guard Vessel Documentation Center.

Last reported at 2015-Jun-26 02:30 UTC. Time now 2015-Jun-30 19:42 UTC.
Position N 29°23' W 094°49'.

Length 29 m; draft 3 m.

Type: Towing. MMSI: 367113160.

Date/timePositionNaut miles runAvg speedWind from/ knotsBaromVisibWave heightAir tempDewpointWater temp
2015-Jun-26 02:30N 29°23' W 094°49'8 8.4
2015-Jun-26 01:33N 29°30' W 094°53'8 7.7
2015-Jun-26 00:34N 29°37' W 094°57'8 7.7
2015-Jun-25 23:34N 29°44' W 095°02'4 3.9
2015-Jun-25 22:30N 29°47' W 095°04'0 0.2
2015-Jun-25 21:33N 29°47' W 095°04'4 4.4
2015-Jun-25 20:33N 29°44' W 095°08'4 1.0
2015-Jun-25 16:33N 29°44' W 095°12'0 0.0
2015-Jun-25 15:33N 29°44' W 095°12'0 0.0
2015-Jun-25 14:32N 29°44' W 095°12'0 0.0
2015-Jun-25 13:33N 29°44' W 095°12'0 0.0
2015-Jun-25 12:28N 29°44' W 095°12'0 0.0
2015-Jun-25 11:31N 29°44' W 095°12'0 0.0
2015-Jun-25 10:30N 29°44' W 095°12'0 0.0
2015-Jun-25 09:18N 29°44' W 095°12'0 0.0
2015-Jun-25 08:29N 29°44' W 095°12'0 0.0
2015-Jun-25 07:32N 29°44' W 095°12'0 0.0
2015-Jun-25 06:33N 29°44' W 095°12'0 0.0
2015-Jun-25 05:27N 29°44' W 095°12'0 0.0
2015-Jun-25 04:33N 29°44' W 095°12'0 0.0
2015-Jun-25 03:30N 29°44' W 095°12'0 0.0
2015-Jun-25 02:30N 29°44' W 095°12'0 0.0
2015-Jun-24 21:19N 29°44' W 095°12'5 6.7
2015-Jun-24 20:32N 29°45' W 095°06'3 3.4
2015-Jun-24 19:33N 29°47' W 095°04'3 3.1
2015-Jun-24 18:32N 29°45' W 095°06'4 3.7
2015-Jun-24 17:33N 29°45' W 095°10'2 0.1
2015-Jun-24 04:25N 29°44' W 095°12'0 0.0
2015-Jun-24 03:34N 29°44' W 095°12'0 0.0
2015-Jun-24 02:33N 29°44' W 095°12'0 0.0
2015-Jun-24 01:32N 29°44' W 095°12'0 0.0
2015-Jun-24 00:33N 29°44' W 095°12'1 0.2
2015-Jun-23 20:24N 29°45' W 095°12'5 5.5
2015-Jun-23 19:33N 29°45' W 095°06'3 5.3
2015-Jun-23 19:05N 29°47' W 095°05'  

Dump ship's entire track history